createdAt,value
2019-05-14T00:00:52.175Z,75.78
2019-05-14T00:15:52.402Z,79.37
2019-05-14T00:30:52.199Z,81.72
2019-05-14T00:45:51.117Z,82.52
2019-05-14T01:00:49.663Z,82.06
2019-05-14T01:30:53.089Z,83.40
2019-05-14T01:45:52.167Z,82.01
2019-05-14T02:00:52.100Z,82.24
2019-05-14T02:15:51.993Z,82.68
2019-05-14T02:30:57.635Z,83.44
2019-05-14T02:46:09.491Z,85.70
2019-05-14T03:00:50.084Z,86.62
2019-05-14T03:15:50.095Z,87.12
2019-05-14T03:30:52.167Z,88.33
2019-05-14T03:45:49.816Z,86.65
2019-05-14T04:15:49.919Z,89.80
2019-05-14T04:30:55.088Z,91.25
2019-05-14T04:45:50.018Z,93.21
2019-05-14T05:00:49.908Z,94.44
2019-05-14T05:15:51.793Z,94.45
2019-05-14T05:30:51.352Z,91.14
2019-05-14T05:45:49.748Z,88.87
2019-05-14T06:00:49.917Z,88.43
2019-05-14T06:15:52.437Z,88.23
2019-05-14T06:30:49.997Z,86.46
2019-05-14T06:45:49.846Z,84.99
2019-05-14T07:00:49.800Z,83.52
2019-05-14T07:15:49.256Z,81.65
2019-05-14T07:30:49.295Z,80.58
2019-05-14T07:45:49.397Z,78.22
2019-05-14T08:00:49.362Z,76.80
2019-05-14T08:15:49.547Z,75.20
2019-05-14T08:30:49.427Z,72.55
2019-05-14T08:45:49.376Z,70.51
2019-05-14T09:00:49.556Z,67.74
2019-05-14T09:15:49.838Z,65.22
2019-05-14T09:30:49.209Z,64.20
2019-05-14T09:45:49.646Z,61.61
2019-05-14T10:00:49.610Z,62.93
2019-05-14T10:15:50.043Z,63.90
2019-05-14T10:30:52.974Z,64.53
2019-05-14T10:45:49.926Z,67.14
2019-05-14T11:00:52.819Z,66.81
2019-05-14T11:15:49.237Z,66.26
2019-05-14T11:30:55.245Z,66.98
2019-05-14T11:45:50.117Z,66.92
2019-05-14T12:00:50.044Z,66.42
2019-05-14T12:15:49.673Z,68.72
2019-05-14T12:30:49.386Z,69.96
2019-05-14T12:45:49.567Z,71.24
2019-05-14T13:00:49.503Z,70.75
2019-05-14T13:15:53.829Z,71.42
2019-05-14T13:30:51.567Z,71.56
2019-05-14T13:45:51.556Z,72.23
2019-05-14T14:00:52.113Z,70.23
2019-05-14T14:15:49.848Z,69.72
2019-05-14T14:30:49.768Z,69.26
2019-05-14T14:45:51.406Z,69.04
2019-05-14T15:00:50.155Z,71.80
2019-05-14T15:15:50.054Z,72.59
2019-05-14T15:30:50.256Z,73.09
2019-05-14T15:45:49.949Z,74.06
2019-05-14T16:01:00.850Z,73.83
2019-05-14T16:15:49.272Z,73.25
2019-05-14T16:30:50.695Z,73.55
2019-05-14T16:45:56.052Z,76.73
2019-05-14T17:30:51.529Z,74.81
2019-05-14T17:45:53.922Z,74.97
2019-05-14T18:00:51.447Z,76.11
2019-05-14T18:30:51.219Z,78.20
2019-05-14T18:45:55.428Z,79.72
2019-05-14T19:00:58.775Z,80.20
2019-05-14T19:15:59.115Z,81.16
2019-05-14T19:31:00.616Z,81.22
2019-05-14T19:45:51.309Z,81.19
2019-05-14T20:00:49.924Z,80.31
2019-05-14T20:30:51.131Z,78.69
2019-05-14T20:45:53.992Z,78.96
2019-05-14T21:00:50.112Z,76.03
2019-05-14T21:15:55.226Z,75.93
2019-05-14T21:30:49.157Z,79.81
2019-05-14T21:45:51.748Z,80.72
2019-05-14T22:00:52.939Z,80.86
2019-05-14T22:15:49.468Z,81.24
2019-05-14T22:30:51.481Z,81.91
2019-05-14T22:45:49.907Z,82.77
2019-05-14T23:01:02.164Z,83.46
2019-05-14T23:15:52.751Z,82.81
2019-05-14T23:30:49.239Z,84.15
2019-05-14T23:45:49.347Z,83.84
